Flight Track Log - Related Links

Times and Time Zones

All times are in EDT time to prevent confusion due to time zone crossing. See the DAL3698 flight status page for this flight to view local times or setup timezone preferences in your user account.

Time Position Orientation Groundspeed Altitude Reporting Facility
EDT Latitude Longitude Course Direction KTS MPH feet Rate Location/Type
Wed 07:18:21 AM 42.8136 -84.5289 279° West 210 242 2,700  Level Cleveland Center
Wed 07:19:21 AM 42.8281 -84.5950 287° West 206 237 4,400 2,027 Climbing Cleveland Center
Wed 07:20:00 AM 42.7494 -85.0966 283° West  Level FlightAware Approximate
Wed 07:20:49 AM 42.8222 -84.7197 266° West 258 297 7,700  Level Chicago Center
Wed 07:21:00 AM 42.7601 -85.2308 276° West  Level FlightAware Approximate
Wed 07:21:50 AM 42.8178 -84.8242 267° West 272 313 10,300  Level Chicago Center
Wed 07:22:00 AM 42.7715 -85.3649 278° West  Level FlightAware Approximate
Wed 07:22:51 AM 42.8311 -84.9617 278° West 307 353 11,900  Level Chicago Center
Wed 07:23:00 AM 42.7845 -85.4932 279° West  Level FlightAware Approximate
Wed 07:23:52 AM 42.8433 -85.0936 277° West 341 392 13,700  Level Chicago Center
Wed 07:24:54 AM 42.8564 -85.2256 278° West 350 403 15,500 1,610 Climbing Chicago Center
Wed 07:25:55 AM 42.8692 -85.3617 277° West 358 412 17,000 1,426 Climbing Chicago Center
Wed 07:26:56 AM 42.8831 -85.5003 278° West 366 421 18,400 984 Climbing Chicago Center
Wed 07:27:57 AM 42.9036 -85.6408 281° West 380 437 19,000 293 Climbing Chicago Center
Wed 07:28:59 AM 42.9519 -85.7833 295° West 409 471 19,000 98 Level Chicago Center
Wed 07:30:00 AM 42.9969 -85.9367 292° West 433 498 19,200 585 Climbing Chicago Center
Wed 07:31:02 AM 43.0072 -86.1111 275° West 433 498 20,200 1,024 Climbing Chicago Center
Wed 07:32:03 AM 43.0169 -86.2678 275° West 416 479 21,300 1,033 Climbing Chicago Center
Wed 07:33:04 AM 43.0256 -86.4231 274° West 412 474 22,300 976 Climbing Chicago Center
Wed 07:34:06 AM 43.0358 -86.5778 275° West 410 472 23,300 927 Climbing Chicago Center
Wed 07:35:07 AM 43.0825 -86.7211 294° West 416 479 24,200 683 Climbing Chicago Center
Wed 07:36:09 AM 43.1281 -86.8647 294° West 415 478 24,700 537 Climbing Chicago Center
Wed 07:37:10 AM 43.1861 -87.0397 295° West 422 486 25,300 541 Climbing Chicago Center
Wed 07:38:11 AM 43.2347 -87.1869 294° West 424 488 25,800 488 Climbing Chicago Center
Wed 07:39:13 AM 43.2819 -87.3364 294° West 425 489 26,300 488 Climbing Chicago Center
Wed 07:40:14 AM 43.3267 -87.4831 293° West 424 488 26,800 488 Climbing Chicago Center
Wed 07:41:16 AM 43.3750 -87.6325 294° West 427 491 27,300 537 Climbing Chicago Center
Wed 07:42:17 AM 43.4300 -87.8086 293° West 427 491 27,900 341 Climbing Chicago Center
Wed 07:43:19 AM 43.4769 -87.9592 293° West 428 493 28,000 49 Climbing Chicago Center
Wed 07:44:20 AM 43.5253 -88.1128 294° West 435 501 28,000  Level Chicago Center
Wed 07:45:22 AM 43.5733 -88.2681 293° West 442 509 28,000  Level Chicago Center
Wed 07:46:23 AM 43.6211 -88.4225 293° West 443 510 28,000  Level Chicago Center
Wed 07:46:55 AM 43.6525 -88.5253 293° West 445 512 28,000  Level Minneapolis Center
Wed 07:47:56 AM 43.6997 -88.6811 293° West 445 512 28,000  Level Minneapolis Center
Wed 07:48:57 AM 43.7461 -88.8378 292° West 443 510 28,000  Level Minneapolis Center
Wed 07:49:28 AM 43.7689 -88.9167 292° West 442 509 28,000  Level Chicago Center
Wed 07:49:58 AM 43.7933 -88.9931 294° West 439 505 28,000  Level Minneapolis Center
Wed 07:50:59 AM 43.8381 -89.1514 291° West 441 507 28,000  Level Minneapolis Center
Wed 07:52:00 AM 43.8850 -89.3069 293° West 438 504 28,000  Level Minneapolis Center
Wed 07:53:01 AM 43.9308 -89.4642 292° West 439 505 28,000  Level Minneapolis Center
Wed 07:54:02 AM 43.9794 -89.6206 293° West 441 507 28,000  Level Minneapolis Center
Wed 07:55:14 AM 44.0347 -89.7717 297° West 441 507 28,000  Level Minneapolis Center
Wed 07:56:16 AM 44.1064 -89.9772 296° West 442 509 28,000  Level Minneapolis Center
Wed 07:57:17 AM 44.1586 -90.1317 295° West 442 509 28,000  Level Minneapolis Center
Wed 07:58:18 AM 44.2117 -90.2856 296° West 440 506 28,000  Level Minneapolis Center
Wed 07:59:19 AM 44.2647 -90.4406 296° West 442 509 28,000  Level Minneapolis Center
Wed 08:00:20 AM 44.3181 -90.5939 296° West 441 507 28,000  Level Minneapolis Center
Wed 08:01:21 AM 44.3703 -90.7497 295° West 442 509 28,000  Level Minneapolis Center
Wed 08:02:22 AM 44.4242 -90.9128 295° West 441 507 28,000  Level Minneapolis Center
Wed 08:03:23 AM 44.4764 -91.0667 295° West 440 506 28,000 -836 Level Minneapolis Center
Wed 08:04:24 AM 44.5272 -91.2231 295° West 442 509 26,300 -2,016 Descending Minneapolis Center
Wed 08:05:25 AM 44.5794 -91.3767 296° West 442 509 23,900 -2,262 Descending Minneapolis Center
Wed 08:06:26 AM 44.6303 -91.5314 295° West 439 505 21,700 -2,060 Descending Minneapolis Center
Wed 08:07:39 AM 44.6803 -91.6811 295° West 432 497 19,300 -2,178 Descending Minneapolis Center
Wed 08:08:41 AM 44.7350 -91.8547 294° West 413 475 16,800 -2,293 Descending Minneapolis Center
Wed 08:09:42 AM 44.7794 -91.9922 295° West 391 450 14,600 -2,262 Descending Minneapolis Center
Wed 08:10:43 AM 44.8306 -92.1531 294° West 377 434 12,200 -2,066 Descending Minneapolis Center
Wed 08:11:44 AM 44.8708 -92.2814 294° West 363 418 10,400 -1,082 Descending Minneapolis Center
Wed 08:12:45 AM 44.8642 -92.4197 266° West 360 414 10,000 -344 Descending Minneapolis Center
Wed 08:13:46 AM 44.8431 -92.5339 255° West 287 330 9,700 -738 Descending Minneapolis Center
Wed 08:14:47 AM 44.8250 -92.6344 256° West 266 306 8,500 -1,171 Descending Minneapolis Center
Wed 08:15:49 AM 44.8053 -92.7339 254° West 263 303 7,300 -1,317 Descending Minneapolis Center
Wed 08:16:50 AM 44.7992 -92.8369 265° West 270 311 5,800 -1,289 Descending Minneapolis Center
Wed 08:18:04 AM 44.7986 -92.9389 270° West 263 303 4,400 -1,067 Descending Minneapolis Center
Wed 08:19:05 AM 44.8164 -93.0478 283° West 197 227 3,400 -927 Descending Minneapolis Center
Wed 08:20:07 AM 44.8400 -93.0986 303° West 162 186 2,500 -871 Descending Minneapolis Center

Login

Don't have an account? Register now (free) for customized features, flight alerts, and more!